createdAt,value
2019-04-05T00:01:21.540Z,99681.31
2019-04-05T00:03:22.887Z,99683.19
2019-04-05T00:05:24.346Z,99678.89
2019-04-05T00:07:25.718Z,99682.90
2019-04-05T00:09:27.109Z,99680.28
2019-04-05T00:11:28.602Z,99680.60
2019-04-05T00:13:30.081Z,99686.89
2019-04-05T00:15:31.436Z,99692.02
2019-04-05T00:17:32.816Z,99691.66
2019-04-05T00:19:34.248Z,99697.80
2019-04-05T00:21:35.676Z,99691.95
2019-04-05T00:23:37.036Z,99687.67
2019-04-05T00:25:38.395Z,99690.28
2019-04-05T00:27:39.783Z,99693.06
2019-04-05T00:29:41.133Z,99692.05
2019-04-05T00:31:42.486Z,99687.84
2019-04-05T00:33:44.133Z,99691.41
2019-04-05T00:35:45.486Z,99694.36
2019-04-05T00:37:46.859Z,99695.95
2019-04-05T00:39:48.231Z,99699.61
2019-04-05T00:41:49.585Z,99702.89
2019-04-05T00:43:50.947Z,99701.80
2019-04-05T00:45:52.354Z,99704.08
2019-04-05T00:47:53.727Z,99701.51
2019-04-05T00:49:55.176Z,99703.20
2019-04-05T00:51:56.570Z,99701.05
2019-04-05T00:53:57.939Z,99700.03
2019-04-05T00:55:59.399Z,99705.13
2019-04-05T00:58:00.796Z,99711.95
2019-04-05T01:00:03.454Z,99707.09
2019-04-05T01:02:05.609Z,99711.52
2019-04-05T01:04:07.005Z,99711.78
2019-04-05T01:06:08.495Z,99705.99
2019-04-05T01:08:10.009Z,99708.40
2019-04-05T01:10:12.041Z,99711.94
2019-04-05T01:12:13.600Z,99707.22
2019-04-05T01:14:15.503Z,99715.03
2019-04-05T01:16:16.843Z,99716.16
2019-04-05T01:18:18.194Z,99719.45
2019-04-05T01:20:21.333Z,99717.20
2019-04-05T01:22:26.884Z,99720.48
2019-04-05T01:24:28.834Z,99722.01
2019-04-05T01:26:30.733Z,99724.28
2019-04-05T01:28:33.300Z,99732.04
2019-04-05T01:30:34.687Z,99736.05
2019-04-05T01:32:36.167Z,99738.83
2019-04-05T01:34:37.529Z,99737.70
2019-04-05T01:36:38.885Z,99744.13
2019-04-05T01:38:40.281Z,99749.00
2019-04-05T01:40:47.945Z,99752.27
2019-04-05T01:42:49.427Z,99755.79
2019-04-05T01:44:52.001Z,99754.77
2019-04-05T01:46:53.778Z,99763.09
2019-04-05T01:48:55.124Z,99761.28
2019-04-05T01:50:56.622Z,99763.11
2019-04-05T01:52:58.305Z,99761.72
2019-04-05T01:54:59.668Z,99768.89
2019-04-05T01:57:01.024Z,99773.93
2019-04-05T01:59:02.443Z,99771.97
2019-04-05T02:01:03.900Z,99777.59
2019-04-05T02:03:05.298Z,99778.03
2019-04-05T02:05:07.651Z,99777.05
2019-04-05T02:07:09.014Z,99781.66
2019-04-05T02:09:10.386Z,99777.60
2019-04-05T02:11:11.732Z,99774.22
2019-04-05T02:13:13.203Z,99769.20
2019-04-05T02:15:26.371Z,99769.52
2019-04-05T02:17:27.848Z,99771.86
2019-04-05T02:19:29.190Z,99773.05
2019-04-05T02:21:30.870Z,99778.74
2019-04-05T02:23:32.213Z,99779.92
2019-04-05T02:25:33.699Z,99774.13
2019-04-05T02:27:35.102Z,99781.59
2019-04-05T02:29:36.455Z,99788.09
2019-04-05T02:31:37.909Z,99789.14
2019-04-05T02:33:39.302Z,99795.62
2019-04-05T02:35:40.658Z,99790.86
2019-04-05T02:37:42.156Z,99786.66
2019-04-05T02:39:43.549Z,99788.99
2019-04-05T02:41:45.846Z,99795.10
2019-04-05T02:43:48.358Z,99798.34
2019-04-05T02:45:50.747Z,99805.28
2019-04-05T02:47:57.806Z,99799.27
2019-04-05T02:50:00.202Z,99797.23
2019-04-05T02:52:02.980Z,99802.47
2019-04-05T02:54:04.788Z,99800.25
2019-04-05T02:56:06.523Z,99800.55
2019-04-05T02:58:10.789Z,99805.17
2019-04-05T03:00:12.587Z,99808.61
2019-04-05T03:02:14.150Z,99812.09
2019-04-05T03:04:15.524Z,99811.89
2019-04-05T03:06:17.001Z,99814.55
2019-04-05T03:08:18.869Z,99823.05
2019-04-05T03:10:54.433Z,99820.72
2019-04-05T03:12:55.828Z,99820.27
2019-04-05T03:14:59.630Z,99821.68
2019-04-05T03:17:01.603Z,99824.80
2019-04-05T03:19:08.718Z,99833.95
2019-04-05T03:21:11.262Z,99836.28
2019-04-05T03:23:13.420Z,99833.98
2019-04-05T03:25:14.808Z,99835.70
2019-04-05T03:27:21.041Z,99840.77
2019-04-05T03:29:22.591Z,99842.10
2019-04-05T03:31:25.973Z,99845.33
2019-04-05T03:33:27.856Z,99841.51
2019-04-05T03:35:29.448Z,99840.06
2019-04-05T03:37:30.827Z,99842.69
2019-04-05T03:39:32.291Z,99849.44
2019-04-05T03:41:33.942Z,99854.59
2019-04-05T03:43:35.728Z,99852.91
2019-04-05T03:45:37.205Z,99861.27
2019-04-05T03:47:38.869Z,99866.05
2019-04-05T03:49:40.458Z,99870.05
2019-04-05T03:51:42.522Z,99871.77
2019-04-05T03:53:44.520Z,99872.79
2019-04-05T03:55:45.920Z,99870.84
2019-04-05T03:57:47.293Z,99879.74
2019-04-05T03:59:49.081Z,99874.46
2019-04-05T04:01:50.952Z,99886.46
2019-04-05T04:03:52.315Z,99893.80
2019-04-05T04:05:54.204Z,99905.88
2019-04-05T04:07:55.674Z,99909.33
2019-04-05T04:09:57.060Z,99910.03
2019-04-05T04:11:58.554Z,99909.73
2019-04-05T04:14:00.227Z,99914.28
2019-04-05T04:16:01.717Z,99918.94
2019-04-05T04:18:03.864Z,99922.91
2019-04-05T04:20:05.717Z,99914.38
2019-04-05T04:22:24.729Z,99916.19
2019-04-05T04:24:26.312Z,99924.98
2019-04-05T04:26:27.886Z,99923.52
2019-04-05T04:28:29.672Z,99927.64
2019-04-05T04:30:31.544Z,99925.80
2019-04-05T04:32:33.044Z,99928.39
2019-04-05T04:34:34.708Z,99936.23
2019-04-05T04:36:36.193Z,99946.88
2019-04-05T04:38:38.771Z,99950.77
2019-04-05T04:40:40.508Z,99953.38
2019-04-05T04:42:43.181Z,99958.11
2019-04-05T04:44:44.532Z,99959.10
2019-04-05T04:46:48.094Z,99965.32
2019-04-05T04:48:49.594Z,99968.73
2019-04-05T04:50:51.455Z,99970.31
2019-04-05T04:52:53.443Z,99971.84
2019-04-05T04:54:55.501Z,99973.19
2019-04-05T04:56:57.374Z,99974.50
2019-04-05T04:58:59.265Z,99977.38
2019-04-05T05:01:00.860Z,99980.33
2019-04-05T05:03:02.469Z,99987.03
2019-04-05T05:05:05.917Z,99982.41
2019-04-05T05:07:07.398Z,99990.19
2019-04-05T05:09:08.993Z,99997.95
2019-04-05T05:11:14.841Z,99994.62
2019-04-05T05:13:14.057Z,99999.46
2019-04-05T05:15:15.509Z,99999.52
2019-04-05T05:17:17.497Z,100011.59
2019-04-05T05:19:18.965Z,100002.35
2019-04-05T05:21:20.342Z,100002.33
2019-04-05T05:23:22.117Z,100008.28
2019-04-05T05:25:23.598Z,100017.34
2019-04-05T05:27:25.385Z,100021.45
2019-04-05T05:29:27.067Z,100030.14
2019-04-05T05:31:29.051Z,100027.03
2019-04-05T05:33:30.719Z,100020.81
2019-04-05T05:35:32.490Z,100031.66
2019-04-05T05:37:34.883Z,100034.84
2019-04-05T05:39:36.223Z,100042.31
2019-04-05T05:41:37.596Z,100039.00
2019-04-05T05:43:38.969Z,100040.17
2019-04-05T05:45:41.250Z,100047.92
2019-04-05T05:47:51.864Z,100057.64
2019-04-05T05:49:45.910Z,100055.64
2019-04-05T05:51:47.974Z,100054.16
2019-04-05T05:53:49.332Z,100060.45
2019-04-05T05:55:50.914Z,100064.02
2019-04-05T05:57:54.885Z,100065.00
2019-04-05T05:59:55.518Z,100065.89
2019-04-05T06:01:56.963Z,100065.39
2019-04-05T06:03:58.407Z,100058.46
2019-04-05T06:06:04.548Z,100063.59
2019-04-05T06:08:03.113Z,100062.45
2019-04-05T06:10:06.435Z,100066.63
2019-04-05T06:12:07.806Z,100070.78
2019-04-05T06:14:09.152Z,100073.48
2019-04-05T06:16:10.535Z,100069.27
2019-04-05T06:18:12.762Z,100073.64
2019-04-05T06:20:15.987Z,100071.57
2019-04-05T06:22:17.340Z,100081.61
2019-04-05T06:24:19.348Z,100086.21
2019-04-05T06:26:20.703Z,100089.41
2019-04-05T06:28:22.061Z,100089.62
2019-04-05T06:30:23.451Z,100084.47
2019-04-05T06:32:24.850Z,100083.19
2019-04-05T06:34:26.218Z,100079.59
2019-04-05T06:36:27.578Z,100084.98
2019-04-05T06:38:28.967Z,100085.13
2019-04-05T06:40:40.124Z,100084.34
2019-04-05T06:42:33.609Z,100087.91
2019-04-05T06:44:34.988Z,100088.67
2019-04-05T06:46:36.373Z,100083.34
2019-04-05T06:48:37.741Z,100083.72
2019-04-05T06:50:39.118Z,100091.20
2019-04-05T06:52:40.492Z,100094.03
2019-04-05T06:54:41.897Z,100095.77
2019-04-05T06:56:43.305Z,100097.63
2019-04-05T06:58:46.292Z,100104.84
2019-04-05T07:00:57.075Z,100106.89
2019-04-05T07:02:51.275Z,100109.62
2019-04-05T07:04:52.654Z,100108.58
2019-04-05T07:06:54.043Z,100110.77
2019-04-05T07:08:55.432Z,100106.34
2019-04-05T07:10:56.784Z,100111.94
2019-04-05T07:12:58.239Z,100110.45
2019-04-05T07:14:59.867Z,100115.23
2019-04-05T07:17:01.213Z,100114.30
2019-04-05T07:19:02.688Z,100120.71
2019-04-05T07:21:04.083Z,100119.62
2019-04-05T07:23:08.920Z,100129.47
2019-04-05T07:25:10.384Z,100129.07
2019-04-05T07:27:11.756Z,100122.99
2019-04-05T07:29:13.140Z,100136.31
2019-04-05T07:31:14.664Z,100139.54
2019-04-05T07:33:16.074Z,100142.84
2019-04-05T07:35:17.464Z,100140.23
2019-04-05T07:37:18.851Z,100141.26
2019-04-05T07:39:20.269Z,100147.57
2019-04-05T07:41:21.703Z,100146.67
2019-04-05T07:43:23.073Z,100152.30
2019-04-05T07:45:24.444Z,100162.95
2019-04-05T07:47:25.805Z,100171.75
2019-04-05T07:49:27.150Z,100164.06
2019-04-05T07:51:28.540Z,100165.28
2019-04-05T07:53:29.904Z,100163.39
2019-04-05T07:55:31.254Z,100165.23
2019-04-05T07:57:32.661Z,100162.17
2019-04-05T07:59:34.097Z,100167.34
2019-04-05T08:01:35.495Z,100169.80
2019-04-05T08:03:36.885Z,100160.72
2019-04-05T08:05:38.327Z,100169.11
2019-04-05T08:07:44.698Z,100167.81
2019-04-05T08:09:46.579Z,100166.95
2019-04-05T08:11:48.141Z,100169.67
2019-04-05T08:13:51.529Z,100168.84
2019-04-05T08:15:53.083Z,100174.25
2019-04-05T08:17:54.423Z,100175.75
2019-04-05T08:19:55.806Z,100177.45
2019-04-05T08:21:57.262Z,100186.58
2019-04-05T08:23:58.623Z,100183.27
2019-04-05T08:26:00.025Z,100187.05
2019-04-05T08:28:01.392Z,100187.98
2019-04-05T08:30:05.475Z,100183.76
2019-04-05T08:32:14.399Z,100186.97
2019-04-05T08:34:10.066Z,100183.11
2019-04-05T08:36:11.478Z,100193.67
2019-04-05T08:38:12.882Z,100193.57
2019-04-05T08:40:14.490Z,100193.51
2019-04-05T08:42:15.981Z,100190.95
2019-04-05T08:44:17.339Z,100194.02
2019-04-05T08:46:18.714Z,100197.17
2019-04-05T08:48:20.094Z,100197.33
2019-04-05T08:50:21.442Z,100192.12
2019-04-05T08:52:22.827Z,100190.97
2019-04-05T08:54:32.619Z,100195.05
2019-04-05T08:56:27.498Z,100200.33
2019-04-05T08:58:33.541Z,100198.66
2019-04-05T09:00:32.110Z,100195.84
2019-04-05T09:02:33.522Z,100202.59
2019-04-05T09:04:34.899Z,100203.42
2019-04-05T09:06:36.285Z,100207.63
2019-04-05T09:08:37.645Z,100202.52
2019-04-05T09:10:39.046Z,100205.25
2019-04-05T09:12:40.387Z,100209.75
2019-04-05T09:14:41.730Z,100209.73
2019-04-05T09:16:43.121Z,100209.61
2019-04-05T09:18:44.479Z,100217.19
2019-04-05T09:20:45.866Z,100215.32
2019-04-05T09:22:47.243Z,100213.63
2019-04-05T09:24:48.612Z,100212.11
2019-04-05T09:26:50.184Z,100210.52
2019-04-05T09:28:51.555Z,100209.30
2019-04-05T09:30:52.899Z,100216.27
2019-04-05T09:32:54.286Z,100220.48
2019-04-05T09:34:55.695Z,100214.77
2019-04-05T09:36:57.078Z,100222.70
2019-04-05T09:38:58.447Z,100218.04
2019-04-05T09:40:59.831Z,100222.36
2019-04-05T09:43:01.205Z,100221.70
2019-04-05T09:45:04.853Z,100228.18
2019-04-05T09:47:06.235Z,100225.77
2019-04-05T09:49:07.589Z,100228.30
2019-04-05T09:51:08.962Z,100225.30
2019-04-05T09:53:10.455Z,100227.69
2019-04-05T09:55:12.004Z,100230.63
2019-04-05T09:57:13.439Z,100224.16
2019-04-05T09:59:14.828Z,100227.55
2019-04-05T10:01:16.198Z,100225.92
2019-04-05T10:03:17.696Z,100228.20
2019-04-05T10:05:19.041Z,100233.25
2019-04-05T10:07:20.428Z,100242.48
2019-04-05T10:09:21.776Z,100242.91
2019-04-05T10:11:23.119Z,100237.14
2019-04-05T10:13:24.523Z,100243.52
2019-04-05T10:15:25.884Z,100251.50
2019-04-05T10:17:27.246Z,100247.98
2019-04-05T10:19:28.614Z,100249.16
2019-04-05T10:21:29.999Z,100254.58
2019-04-05T10:23:31.334Z,100249.86
2019-04-05T10:25:32.750Z,100248.32
2019-04-05T10:27:34.152Z,100246.36
2019-04-05T10:29:35.489Z,100251.17
2019-04-05T10:31:36.878Z,100239.47
2019-04-05T10:33:38.268Z,100241.91
2019-04-05T10:35:39.619Z,100241.06
2019-04-05T10:37:41.222Z,100238.22
2019-04-05T10:39:42.592Z,100242.22
2019-04-05T10:41:43.944Z,100241.84
2019-04-05T10:43:45.326Z,100245.75
2019-04-05T10:45:46.692Z,100241.52
2019-04-05T10:47:48.044Z,100244.80
2019-04-05T10:50:01.688Z,100253.61
2019-04-05T10:51:52.685Z,100251.93
2019-04-05T10:53:54.041Z,100253.18
2019-04-05T10:55:55.814Z,100256.80
2019-04-05T10:57:57.271Z,100267.85
2019-04-05T10:59:58.617Z,100266.41
2019-04-05T11:01:59.988Z,100267.37
2019-04-05T11:04:01.339Z,100264.03
2019-04-05T11:06:02.985Z,100258.66
2019-04-05T11:08:04.389Z,100258.58
2019-04-05T11:10:06.372Z,100256.41
2019-04-05T11:12:08.777Z,100264.08
2019-04-05T11:14:13.868Z,100268.30
2019-04-05T11:16:13.775Z,100262.55
2019-04-05T11:18:15.143Z,100261.06
2019-04-05T11:20:23.562Z,100262.77
2019-04-05T11:22:21.036Z,100260.31
2019-04-05T11:24:22.530Z,100264.32
2019-04-05T11:26:23.915Z,100259.11
2019-04-05T11:28:25.293Z,100262.90
2019-04-05T11:30:40.673Z,100267.37
2019-04-05T11:32:42.046Z,100260.23
2019-04-05T11:34:43.532Z,100255.19
2019-04-05T11:36:45.412Z,100254.69
2019-04-05T11:38:49.815Z,100258.97
2019-04-05T11:40:50.898Z,100260.95
2019-04-05T11:42:53.962Z,100258.26
2019-04-05T11:44:57.109Z,100257.34
2019-04-05T11:46:59.012Z,100256.86
2019-04-05T11:49:01.358Z,100260.97
2019-04-05T11:51:04.363Z,100260.30
2019-04-05T11:53:05.707Z,100257.92
2019-04-05T11:55:07.659Z,100262.41
2019-04-05T11:57:09.078Z,100262.62
2019-04-05T11:59:15.658Z,100262.52
2019-04-05T12:01:24.293Z,100263.83
2019-04-05T12:03:27.600Z,100262.36
2019-04-05T12:05:29.039Z,100262.66
2019-04-05T12:07:30.384Z,100261.42
2019-04-05T12:09:31.754Z,100260.48
2019-04-05T12:11:33.205Z,100260.75
2019-04-05T12:13:34.583Z,100260.80
2019-04-05T12:15:36.497Z,100260.84
2019-04-05T12:17:37.903Z,100268.85
2019-04-05T12:19:39.286Z,100270.05
2019-04-05T12:21:40.628Z,100270.84
2019-04-05T12:23:42.065Z,100265.52
2019-04-05T12:25:43.443Z,100265.38
2019-04-05T12:27:44.822Z,100265.26
2019-04-05T12:29:46.184Z,100263.69
2019-04-05T12:31:47.562Z,100266.71
2019-04-05T12:33:51.397Z,100264.72
2019-04-05T12:35:56.162Z,100263.39
2019-04-05T12:37:56.150Z,100260.38
2019-04-05T12:39:57.718Z,100253.48
2019-04-05T12:41:59.099Z,100262.81
2019-04-05T12:44:00.447Z,100262.82
2019-04-05T12:46:01.995Z,100259.83
2019-04-05T12:48:03.377Z,100252.60
2019-04-05T12:50:07.031Z,100262.59
2019-04-05T12:52:16.727Z,100261.03
2019-04-05T12:54:11.677Z,100267.38
2019-04-05T12:56:13.044Z,100257.52
2019-04-05T12:58:14.417Z,100265.99
2019-04-05T13:00:17.458Z,100261.84
2019-04-05T13:02:27.902Z,100260.38
2019-04-05T13:04:22.101Z,100254.84
2019-04-05T13:06:23.488Z,100249.81
2019-04-05T13:08:24.836Z,100253.86
2019-04-05T13:10:26.544Z,100248.44
2019-04-05T13:12:28.073Z,100247.30
2019-04-05T13:14:29.407Z,100249.92
2019-04-05T13:16:30.808Z,100241.17
2019-04-05T13:18:32.190Z,100243.69
2019-04-05T13:20:33.530Z,100242.04
2019-04-05T13:22:34.924Z,100242.77
2019-04-05T13:24:39.558Z,100238.88
2019-04-05T13:26:41.824Z,100230.67
2019-04-05T13:28:42.807Z,100230.06
2019-04-05T13:30:44.251Z,100229.18
2019-04-05T13:32:45.625Z,100224.63
2019-04-05T13:34:46.976Z,100231.55
2019-04-05T13:36:48.331Z,100230.83
2019-04-05T13:38:54.898Z,100228.85
2019-04-05T13:40:52.990Z,100228.32
2019-04-05T13:42:54.362Z,100237.20
2019-04-05T13:44:55.726Z,100239.22
2019-04-05T13:46:57.113Z,100242.62
2019-04-05T13:48:58.459Z,100244.92
2019-04-05T13:50:59.800Z,100241.06
2019-04-05T13:53:01.197Z,100247.78
2019-04-05T13:55:04.786Z,100244.39
2019-04-05T13:57:06.252Z,100246.84
2019-04-05T13:59:07.633Z,100243.89
2019-04-05T14:01:09.224Z,100234.78
2019-04-05T14:03:10.584Z,100226.01
2019-04-05T14:05:12.125Z,100230.49
2019-04-05T14:07:13.606Z,100228.14
2019-04-05T14:09:15.670Z,100232.55
2019-04-05T14:11:17.347Z,100227.88
2019-04-05T14:13:18.693Z,100220.14
2019-04-05T14:15:20.099Z,100226.02
2019-04-05T14:17:21.440Z,100217.69
2019-04-05T14:19:22.786Z,100222.03
2019-04-05T14:21:24.160Z,100215.29
2019-04-05T14:23:25.499Z,100220.56
2019-04-05T14:25:29.980Z,100224.80
2019-04-05T14:27:30.160Z,100220.98
2019-04-05T14:29:33.285Z,100217.69
2019-04-05T14:31:34.760Z,100215.25
2019-04-05T14:33:36.148Z,100212.70
2019-04-05T14:35:37.488Z,100206.08
2019-04-05T14:37:38.834Z,100208.52
2019-04-05T14:39:40.233Z,100212.38
2019-04-05T14:41:41.609Z,100213.63
2019-04-05T14:43:45.017Z,100204.72
2019-04-05T14:45:46.253Z,100206.66
2019-04-05T14:47:47.631Z,100196.20
2019-04-05T14:49:49.026Z,100198.30
2019-04-05T14:51:54.958Z,100194.44
2019-04-05T14:53:53.762Z,100197.35
2019-04-05T14:55:55.175Z,100194.55
2019-04-05T14:57:56.562Z,100194.75
2019-04-05T14:59:57.945Z,100194.08
2019-04-05T15:01:59.290Z,100203.16
2019-04-05T15:04:00.691Z,100201.05
2019-04-05T15:06:02.047Z,100207.48
2019-04-05T15:08:03.605Z,100202.89
2019-04-05T15:10:05.887Z,100195.44
2019-04-05T15:12:07.324Z,100188.91
2019-04-05T15:14:08.702Z,100200.33
2019-04-05T15:16:11.677Z,100199.36
2019-04-05T15:18:13.314Z,100191.41
2019-04-05T15:20:15.089Z,100193.85
2019-04-05T15:22:16.466Z,100193.58
2019-04-05T15:24:17.813Z,100189.23
2019-04-05T15:26:21.351Z,100195.13
2019-04-05T15:28:24.598Z,100192.17
2019-04-05T15:30:26.559Z,100192.68
2019-04-05T15:32:28.498Z,100191.36
2019-04-05T15:34:29.876Z,100185.64
2019-04-05T15:36:31.672Z,100186.93
2019-04-05T15:38:33.728Z,100184.57
2019-04-05T15:40:35.107Z,100188.29
2019-04-05T15:42:36.453Z,100189.19
2019-04-05T15:44:37.802Z,100181.81
2019-04-05T15:46:39.171Z,100180.73
2019-04-05T15:48:40.539Z,100179.49
2019-04-05T15:50:41.913Z,100184.36
2019-04-05T15:52:43.249Z,100176.20
2019-04-05T15:54:44.654Z,100173.06
2019-04-05T15:56:46.049Z,100178.34
2019-04-05T15:58:47.385Z,100180.29
2019-04-05T16:00:48.760Z,100180.50
2019-04-05T16:02:50.160Z,100179.27
2019-04-05T16:04:51.548Z,100186.19
2019-04-05T16:06:52.892Z,100182.59
2019-04-05T16:08:54.236Z,100184.53
2019-04-05T16:10:55.754Z,100181.59
2019-04-05T16:12:57.201Z,100186.22
2019-04-05T16:14:58.570Z,100186.24
2019-04-05T16:16:59.940Z,100184.82
2019-04-05T16:19:01.287Z,100188.84
2019-04-05T16:21:02.680Z,100191.94
2019-04-05T16:23:04.192Z,100198.25
2019-04-05T16:25:07.040Z,100196.89
2019-04-05T16:27:08.383Z,100194.00
2019-04-05T16:29:09.957Z,100190.64
2019-04-05T16:31:11.302Z,100189.41
2019-04-05T16:33:12.674Z,100189.88
2019-04-05T16:35:14.712Z,100186.02
2019-04-05T16:37:16.368Z,100183.30
2019-04-05T16:39:19.116Z,100174.62
2019-04-05T16:41:21.080Z,100179.83
2019-04-05T16:43:22.871Z,100181.17
2019-04-05T16:45:24.640Z,100176.13
2019-04-05T16:47:26.325Z,100177.00
2019-04-05T16:49:28.175Z,100182.82
2019-04-05T16:51:29.916Z,100177.42
2019-04-05T16:53:32.017Z,100182.98
2019-04-05T16:55:33.766Z,100188.63
2019-04-05T16:57:35.659Z,100181.92
2019-04-05T16:59:37.310Z,100179.45
2019-04-05T17:01:38.951Z,100187.23
2019-04-05T17:03:40.724Z,100177.70
2019-04-05T17:05:42.630Z,100182.59
2019-04-05T17:07:44.409Z,100190.89
2019-04-05T17:09:46.102Z,100192.98
2019-04-05T17:11:48.005Z,100200.81
2019-04-05T17:13:50.546Z,100197.08
2019-04-05T17:15:51.905Z,100187.95
2019-04-05T17:17:53.324Z,100189.11
2019-04-05T17:19:54.673Z,100187.25
2019-04-05T17:21:56.026Z,100184.42
2019-04-05T17:23:57.426Z,100173.91
2019-04-05T17:25:58.762Z,100175.73
2019-04-05T17:28:00.105Z,100186.95
2019-04-05T17:30:04.084Z,100199.20
2019-04-05T17:32:05.426Z,100200.39
2019-04-05T17:34:07.264Z,100199.92
2019-04-05T17:36:08.663Z,100210.28
2019-04-05T17:38:10.029Z,100211.34
2019-04-05T17:40:11.603Z,100207.16
2019-04-05T17:42:13.046Z,100207.84
2019-04-05T17:44:14.460Z,100220.45
2019-04-05T17:46:15.824Z,100219.52
2019-04-05T17:48:17.203Z,100214.53
2019-04-05T17:50:29.012Z,100210.75
2019-04-05T17:52:30.384Z,100218.58
2019-04-05T17:54:31.724Z,100219.28
2019-04-05T17:56:34.032Z,100215.48
2019-04-05T17:58:35.470Z,100214.54
2019-04-05T18:00:37.130Z,100213.30
2019-04-05T18:02:38.522Z,100219.56
2019-04-05T18:04:39.913Z,100215.18
2019-04-05T18:06:41.262Z,100222.42
2019-04-05T18:08:42.629Z,100218.86
2019-04-05T18:10:44.024Z,100220.28
2019-04-05T18:12:45.365Z,100219.30
2019-04-05T18:14:46.757Z,100216.83
2019-04-05T18:16:49.016Z,100221.41
2019-04-05T18:18:50.439Z,100225.14
2019-04-05T18:20:51.839Z,100219.63
2019-04-05T18:22:53.180Z,100219.44
2019-04-05T18:24:54.527Z,100225.88
2019-04-05T18:26:56.090Z,100226.97
2019-04-05T18:28:57.830Z,100221.08
2019-04-05T18:30:59.172Z,100218.06
2019-04-05T18:33:00.575Z,100209.67
2019-04-05T18:35:02.432Z,100217.83
2019-04-05T18:37:03.874Z,100220.29
2019-04-05T18:39:05.863Z,100222.07
2019-04-05T18:41:07.227Z,100223.06
2019-04-05T18:43:08.624Z,100239.75
2019-04-05T18:45:10.302Z,100224.84
2019-04-05T18:47:11.642Z,100220.30
2019-04-05T18:49:13.033Z,100214.56
2019-04-05T18:51:14.392Z,100208.27
2019-04-05T18:53:15.731Z,100202.82
2019-04-05T18:55:17.126Z,100204.36
2019-04-05T18:57:18.477Z,100206.30
2019-04-05T18:59:19.854Z,100210.94
2019-04-05T19:01:21.295Z,100218.13
2019-04-05T19:03:22.634Z,100218.41
2019-04-05T19:05:23.990Z,100229.64
2019-04-05T19:07:25.378Z,100228.11
2019-04-05T19:09:26.726Z,100234.39
2019-04-05T19:11:28.197Z,100238.73
2019-04-05T19:13:29.615Z,100234.97
2019-04-05T19:15:30.950Z,100235.70
2019-04-05T19:17:32.343Z,100232.41
2019-04-05T19:19:33.729Z,100233.36
2019-04-05T19:21:35.164Z,100229.67
2019-04-05T19:23:36.567Z,100229.41
2019-04-05T19:25:37.908Z,100230.08
2019-04-05T19:27:39.253Z,100226.11
2019-04-05T19:29:40.645Z,100225.98
2019-04-05T19:50:12.006Z,100230.72
2019-04-05T19:52:13.348Z,100238.03
2019-04-05T19:54:14.696Z,100238.03
2019-04-05T19:56:16.082Z,100237.21
2019-04-05T19:58:17.426Z,100239.68
2019-04-05T20:00:19.114Z,100246.72
2019-04-05T20:02:20.496Z,100251.07
2019-04-05T20:04:21.843Z,100240.23
2019-04-05T20:06:23.219Z,100249.17
2019-04-05T20:08:24.608Z,100248.72
2019-04-05T20:10:25.959Z,100249.52
2019-04-05T20:12:27.312Z,100251.38
2019-04-05T20:14:28.689Z,100250.28
2019-04-05T20:16:30.036Z,100249.38
2019-04-05T20:18:31.379Z,100251.32
2019-04-05T20:20:32.769Z,100257.56
2019-04-05T20:22:34.229Z,100256.84
2019-04-05T20:24:35.566Z,100252.46
2019-04-05T20:26:36.984Z,100257.58
2019-04-05T20:28:38.336Z,100254.23
2019-04-05T20:30:39.708Z,100257.53
2019-04-05T20:32:41.104Z,100260.11
2019-04-05T20:34:42.457Z,100255.70
2019-04-05T20:36:43.789Z,100257.47
2019-04-05T20:38:45.185Z,100257.53
2019-04-05T20:40:46.527Z,100268.98
2019-04-05T20:42:47.872Z,100265.36
2019-04-05T20:44:49.246Z,100268.20
2019-04-05T20:46:50.631Z,100267.91
2019-04-05T20:48:51.984Z,100267.08
2019-04-05T20:50:53.399Z,100272.42
2019-04-05T20:52:54.774Z,100272.36
2019-04-05T20:54:56.184Z,100271.60
2019-04-05T20:56:57.525Z,100275.50
2019-04-05T20:58:58.892Z,100270.61
2019-04-05T21:01:00.276Z,100269.67
2019-04-05T21:03:01.623Z,100271.33
2019-04-05T21:05:05.312Z,100272.16
2019-04-05T21:07:06.670Z,100267.49
2019-04-05T21:09:08.222Z,100269.25
2019-04-05T21:11:09.608Z,100268.06
2019-04-05T21:13:11.037Z,100266.98
2019-04-05T21:15:12.492Z,100265.17
2019-04-05T21:17:13.894Z,100269.20
2019-04-05T21:19:15.335Z,100269.30
2019-04-05T21:21:16.687Z,100269.54
2019-04-05T21:23:18.079Z,100274.63
2019-04-05T21:25:19.457Z,100272.09
2019-04-05T21:27:20.804Z,100279.53
2019-04-05T21:29:22.193Z,100281.99
2019-04-05T21:31:23.589Z,100278.77
2019-04-05T21:33:24.941Z,100278.72
2019-04-05T21:35:26.440Z,100280.36
2019-04-05T21:37:27.838Z,100276.92
2019-04-05T21:39:29.184Z,100278.24
2019-04-05T21:41:30.782Z,100280.70
2019-04-05T21:43:32.151Z,100286.74
2019-04-05T21:45:33.523Z,100287.84
2019-04-05T21:47:34.919Z,100288.13
2019-04-05T21:49:36.283Z,100281.52
2019-04-05T21:51:37.671Z,100283.97
2019-04-05T21:53:39.078Z,100290.15
2019-04-05T21:55:40.459Z,100285.94
2019-04-05T21:57:41.820Z,100283.69
2019-04-05T21:59:43.225Z,100292.08
2019-04-05T22:01:44.766Z,100291.05
2019-04-05T22:03:46.192Z,100287.47
2019-04-05T22:05:47.628Z,100286.17
2019-04-05T22:07:51.422Z,100290.20
2019-04-05T22:09:52.304Z,100284.82
2019-04-05T22:11:53.673Z,100284.59
2019-04-05T22:13:55.069Z,100284.91
2019-04-05T22:15:56.432Z,100283.06
2019-04-05T22:17:57.801Z,100288.22
2019-04-05T22:19:59.193Z,100292.91
2019-04-05T22:22:00.575Z,100283.42
2019-04-05T22:24:01.923Z,100287.20
2019-04-05T22:26:03.290Z,100282.27
2019-04-05T22:28:04.662Z,100292.95
2019-04-05T22:30:06.731Z,100293.09
2019-04-05T22:32:08.114Z,100288.45
2019-04-05T22:34:09.515Z,100293.76
2019-04-05T22:36:10.861Z,100290.00
2019-04-05T22:38:12.262Z,100290.36
2019-04-05T22:40:13.834Z,100291.80
2019-04-05T22:42:15.168Z,100284.98
2019-04-05T22:44:16.552Z,100287.80
2019-04-05T22:46:17.916Z,100290.48
2019-04-05T22:48:19.272Z,100302.84
2019-04-05T22:50:20.754Z,100298.75
2019-04-05T22:52:22.130Z,100286.69
2019-04-05T22:54:23.518Z,100282.13
2019-04-05T22:56:25.364Z,100284.47
2019-04-05T22:58:26.812Z,100291.66
2019-04-05T23:00:28.146Z,100296.97
2019-04-05T23:02:29.527Z,100296.95
2019-04-05T23:04:30.920Z,100301.57
2019-04-05T23:06:32.267Z,100297.44
2019-04-05T23:08:33.605Z,100298.47
2019-04-05T23:10:34.991Z,100295.88
2019-04-05T23:12:36.331Z,100302.72
2019-04-05T23:14:37.716Z,100300.20
2019-04-05T23:16:39.086Z,100302.61
2019-04-05T23:18:40.490Z,100299.48
2019-04-05T23:20:41.935Z,100300.20
2019-04-05T23:22:43.573Z,100299.25
2019-04-05T23:24:44.922Z,100299.55
2019-04-05T23:26:46.309Z,100309.26
2019-04-05T23:28:47.656Z,100303.94
2019-04-05T23:30:49.032Z,100297.59
2019-04-05T23:32:50.371Z,100304.19
2019-04-05T23:34:51.769Z,100307.29
2019-04-05T23:36:53.143Z,100307.55